Long Lake, Washington
Current Conditions -  °F | °C
As of 7:55 AM on Saturday 20 Dec 2014 (Local Time) from KPWT Reporting Station
Overcast Overcast  
Wind Chill: 43°   Ceiling: 1700
Heat Index: 43°   Visibility: 4mi
Dew Point: 43°   Wind: 0mph
Humidity: 100%   Direction: NA
Pressure: 29.66"   Gusts: NA
Location:  47.5378°N, 122.589°W
Report Text: KPWT 201555Z AUTO 00000KT 4SM BKN017 OVC026 06/06 A2966 RMK AO1 P0008
Loading
Personal Weather Stations






























Interactive Weather Map New forecast layout! Learn more

10-Day Weather Forecast

Advertisements
Track Severe Weather on mobile